Flight Track Log - Related Links

Times and Time Zones

All times are in EDT time to prevent confusion due to time zone crossing. See the N70LT flight status page for this flight to view local times or setup timezone preferences in your user account.

Time Position Orientation Groundspeed Altitude Reporting Facility
EDT Latitude Longitude Course Direction KTS MPH feet Rate Location/Type
Thu 01:20:03 PM 38.5417 -90.0572 122° Southeast 156 180 1,700  Level FAA TRACON SMA TRACON (SMA)
Thu 01:20:46 PM 38.5242 -90.0208 119° Southeast 177 204 2,800 1,425 Climbing FAA TRACON SMA TRACON (SMA)
Thu 01:21:23 PM 38.5089 -89.9856 73° East 185 213 3,600 935 Climbing FAA TRACON SMA TRACON (SMA)
Thu 01:22:03 PM 38.5194 -89.9417 23° Northeast 216 249 4,000 225 Climbing FAA TRACON SMA TRACON (SMA)
Thu 01:22:43 PM 38.5539 -89.9231 North 219 252 3,900 225 Descending FAA TRACON SMA TRACON (SMA)
Thu 01:23:23 PM 38.5978 -89.9158 10° North 231 266 4,300 900 Climbing FAA TRACON SMA TRACON (SMA)
Thu 01:24:03 PM 38.6375 -89.9067 North 209 241 5,100 1,050 Climbing FAA TRACON SMA TRACON (SMA)
Thu 01:24:43 PM 38.6719 -89.9017 355° North 204 235 5,700 608 Climbing FAA TRACON SMA TRACON (SMA)
Thu 01:25:22 PM 38.7128 -89.9067 333° Northwest 221 254 5,900 148 Climbing FAA TRACON SMA TRACON (SMA)
Thu 01:26:04 PM 38.7522 -89.9322 332° Northwest 231 266 5,900  Level FAA TRACON SMA TRACON (SMA)
Thu 01:26:43 PM 38.7883 -89.9564 333° Northwest 236 272 5,900  Level FAA TRACON SMA TRACON (SMA)
Thu 01:27:23 PM 38.8292 -89.9828 333° Northwest 238 274 5,900  Level FAA TRACON SMA TRACON (SMA)
Thu 01:28:03 PM 38.8692 -90.0089 333° Northwest 232 267 5,900  Level FAA TRACON SMA TRACON (SMA)
Thu 01:28:43 PM 38.9089 -90.0353 333° Northwest 232 267 5,900 228 Level FAA TRACON SMA TRACON (SMA)
Thu 01:29:22 PM 38.9433 -90.0575 335° Northwest 227 261 6,200 1,291 Climbing FAA TRACON SMA TRACON (SMA)
Thu 01:30:02 PM 38.9783 -90.0786 331° Northwest 201 231 7,600 2,100 Climbing FAA TRACON SMA TRACON (SMA)
Thu 01:30:42 PM 39.0047 -90.0972 334° Northwest 175 201 9,000 1,725 Climbing FAA TRACON SMA TRACON (SMA)
Thu 01:31:22 PM 39.0342 -90.1158 331° Northwest 169 194 9,900 675 Climbing FAA TRACON SMA TRACON (SMA)
Thu 01:32:02 PM 39.0692 -90.1406 334° Northwest 208 239 9,900  Level FAA TRACON SMA TRACON (SMA)
Thu 01:32:42 PM 39.1039 -90.1622 331° Northwest 228 262 9,900  Level FAA TRACON SMA TRACON (SMA)
Thu 01:33:22 PM 39.1428 -90.1900 334° Northwest 230 265 9,900  Level FAA TRACON SMA TRACON (SMA)
Thu 01:34:03 PM 39.1842 -90.2158 333° Northwest 239 275 9,900  Level FAA TRACON SMA TRACON (SMA)
Thu 01:34:42 PM 39.2256 -90.2436 334° Northwest 242 278 9,900  Level FAA TRACON SMA TRACON (SMA)
Thu 01:35:22 PM 39.2633 -90.2678 332° Northwest 247 284 9,900  Level FAA TRACON SMA TRACON (SMA)
Thu 01:36:03 PM 39.3050 -90.2964 334° Northwest 246 283 9,900  Level FAA TRACON SMA TRACON (SMA)
Thu 01:36:42 PM 39.3472 -90.3228 333° Northwest 244 281 9,900  Level FAA TRACON SMA TRACON (SMA)
Thu 01:37:22 PM 39.3839 -90.3469 333° Northwest 239 275 9,900 -444 Level FAA TRACON SMA TRACON (SMA)
Thu 01:38:03 PM 39.4253 -90.3742 331° Northwest 241 277 9,300 -1,275 Descending FAA TRACON SMA TRACON (SMA)
Thu 01:38:42 PM 39.4678 -90.4047 297° West 254 292 8,200 -1,391 Descending FAA TRACON SMA TRACON (SMA)
Thu 01:39:12 PM 39.4967 -90.4794 332° Northwest 254 292 7,700 -1,400 Descending Kansas City Center
Thu 01:40:12 PM 39.5650 -90.5269 334° Northwest 259 298 6,100 -1,500 Descending Kansas City Center
Thu 01:41:12 PM 39.6203 -90.5617 334° Northwest 250 288 4,700 -1,289 Descending Kansas City Center
Thu 01:42:13 PM 39.6819 -90.6014 331° Northwest 233 268 3,500 -850 Descending Kansas City Center
Thu 01:43:12 PM 39.7417 -90.6439 334° Northwest 234 269 3,000 -252 Descending Kansas City Center
Thu 01:44:12 PM 39.7886 -90.6739 334° Northwest 229 264 3,000  Level Kansas City Center

Login

Don't have an account? Register now (free) for customized features, flight alerts, and more!